sensor_id;sensor_type;location;lat;lon;timestamp;P1;durP1;ratioP1;P2;durP2;ratioP2
42094;SDS011;27753;55.724;37.612;2022-12-26T00:02:07;5.85;;;2.88;;
42094;SDS011;27753;55.724;37.612;2022-12-26T00:04:33;4.85;;;2.28;;
42094;SDS011;27753;55.724;37.612;2022-12-26T00:07:17;4.93;;;2.10;;
42094;SDS011;27753;55.724;37.612;2022-12-26T00:09:43;5.35;;;2.40;;
42094;SDS011;27753;55.724;37.612;2022-12-26T00:17:57;4.57;;;2.40;;
42094;SDS011;27753;55.724;37.612;2022-12-26T00:20:23;2.70;;;2.42;;
42094;SDS011;27753;55.724;37.612;2022-12-26T00:22:49;4.75;;;1.95;;
42094;SDS011;27753;55.724;37.612;2022-12-26T00:25:15;9.82;;;2.83;;
42094;SDS011;27753;55.724;37.612;2022-12-26T00:27:59;9.02;;;1.95;;
42094;SDS011;27753;55.724;37.612;2022-12-26T00:30:44;2.75;;;1.73;;
42094;SDS011;27753;55.724;37.612;2022-12-26T00:33:10;2.35;;;2.00;;
42094;SDS011;27753;55.724;37.612;2022-12-26T00:35:59;3.35;;;2.00;;
42094;SDS011;27753;55.724;37.612;2022-12-26T00:38:44;2.42;;;1.88;;
42094;SDS011;27753;55.724;37.612;2022-12-26T00:46:39;4.20;;;2.28;;
42094;SDS011;27753;55.724;37.612;2022-12-26T00:52:11;3.47;;;1.70;;
42094;SDS011;27753;55.724;37.612;2022-12-26T01:00:25;2.20;;;1.55;;
42094;SDS011;27753;55.724;37.612;2022-12-26T01:05:40;3.80;;;1.58;;
42094;SDS011;27753;55.724;37.612;2022-12-26T01:17:15;3.17;;;1.80;;
42094;SDS011;27753;55.724;37.612;2022-12-26T01:19:41;2.22;;;1.52;;
42094;SDS011;27753;55.724;37.612;2022-12-26T01:22:07;2.58;;;1.52;;
42094;SDS011;27753;55.724;37.612;2022-12-26T01:24:55;4.18;;;1.75;;
42094;SDS011;27753;55.724;37.612;2022-12-26T01:27:22;2.50;;;1.58;;
42094;SDS011;27753;55.724;37.612;2022-12-26T01:32:51;4.10;;;1.70;;
42094;SDS011;27753;55.724;37.612;2022-12-26T01:35:16;2.28;;;1.63;;
42094;SDS011;27753;55.724;37.612;2022-12-26T01:38:01;1.30;;;1.20;;
42094;SDS011;27753;55.724;37.612;2022-12-26T01:40:27;4.47;;;1.75;;
42094;SDS011;27753;55.724;37.612;2022-12-26T01:42:53;1.85;;;1.33;;
42094;SDS011;27753;55.724;37.612;2022-12-26T01:45:28;5.10;;;1.77;;
42094;SDS011;27753;55.724;37.612;2022-12-26T01:50:59;2.88;;;1.48;;
42094;SDS011;27753;55.724;37.612;2022-12-26T01:56:17;1.70;;;1.38;;
42094;SDS011;27753;55.724;37.612;2022-12-26T01:59:06;3.00;;;1.70;;
42094;SDS011;27753;55.724;37.612;2022-12-26T02:01:35;2.75;;;1.23;;
42094;SDS011;27753;55.724;37.612;2022-12-26T02:04:23;2.13;;;1.35;;
42094;SDS011;27753;55.724;37.612;2022-12-26T02:07:11;1.95;;;1.27;;
42094;SDS011;27753;55.724;37.612;2022-12-26T02:09:55;2.70;;;1.75;;
42094;SDS011;27753;55.724;37.612;2022-12-26T02:12:27;2.33;;;1.38;;
42094;SDS011;27753;55.724;37.612;2022-12-26T02:20:29;2.30;;;1.50;;
42094;SDS011;27753;55.724;37.612;2022-12-26T02:46:31;2.35;;;1.52;;
42094;SDS011;27753;55.724;37.612;2022-12-26T02:52:30;2.17;;;1.52;;
42094;SDS011;27753;55.724;37.612;2022-12-26T02:58:54;3.08;;;2.35;;
42094;SDS011;27753;55.724;37.612;2022-12-26T03:08:14;1.95;;;1.42;;
42094;SDS011;27753;55.724;37.612;2022-12-26T03:14:47;3.60;;;1.65;;
42094;SDS011;27753;55.724;37.612;2022-12-26T03:17:37;2.80;;;1.70;;
42094;SDS011;27753;55.724;37.612;2022-12-26T03:20:27;4.38;;;1.95;;
42094;SDS011;27753;55.724;37.612;2022-12-26T03:23:10;1.58;;;1.48;;
42094;SDS011;27753;55.724;37.612;2022-12-26T03:25:56;3.08;;;1.85;;
42094;SDS011;27753;55.724;37.612;2022-12-26T03:28:44;6.03;;;2.72;;
42094;SDS011;27753;55.724;37.612;2022-12-26T03:34:15;6.22;;;2.88;;
42094;SDS011;27753;55.724;37.612;2022-12-26T03:56:01;2.63;;;1.70;;
42094;SDS011;27753;55.724;37.612;2022-12-26T04:05:10;2.08;;;1.23;;
42094;SDS011;27753;55.724;37.612;2022-12-26T04:07:57;2.88;;;1.80;;
42094;SDS011;27753;55.724;37.612;2022-12-26T04:10:49;1.90;;;1.50;;
42094;SDS011;27753;55.724;37.612;2022-12-26T04:13:59;3.03;;;1.83;;
42094;SDS011;27753;55.724;37.612;2022-12-26T04:17:16;4.03;;;2.13;;
42094;SDS011;27753;55.724;37.612;2022-12-26T04:22:50;2.80;;;1.63;;
42094;SDS011;27753;55.724;37.612;2022-12-26T04:25:57;4.65;;;2.05;;
42094;SDS011;27753;55.724;37.612;2022-12-26T04:29:04;4.35;;;3.25;;
42094;SDS011;27753;55.724;37.612;2022-12-26T04:32:28;3.72;;;1.92;;
42094;SDS011;27753;55.724;37.612;2022-12-26T04:38:33;4.75;;;2.13;;
42094;SDS011;27753;55.724;37.612;2022-12-26T04:41:24;3.83;;;2.10;;
42094;SDS011;27753;55.724;37.612;2022-12-26T04:44:11;4.20;;;2.53;;
42094;SDS011;27753;55.724;37.612;2022-12-26T04:46:40;5.38;;;2.58;;
42094;SDS011;27753;55.724;37.612;2022-12-26T04:49:08;3.53;;;2.45;;
42094;SDS011;27753;55.724;37.612;2022-12-26T04:51:58;5.18;;;2.38;;
42094;SDS011;27753;55.724;37.612;2022-12-26T04:54:25;3.30;;;2.88;;
42094;SDS011;27753;55.724;37.612;2022-12-26T04:56:51;4.47;;;2.63;;
42094;SDS011;27753;55.724;37.612;2022-12-26T04:59:18;7.05;;;2.67;;
42094;SDS011;27753;55.724;37.612;2022-12-26T05:01:44;4.22;;;2.67;;
42094;SDS011;27753;55.724;37.612;2022-12-26T05:04:28;5.70;;;3.28;;
42094;SDS011;27753;55.724;37.612;2022-12-26T05:10:05;8.93;;;3.33;;
42094;SDS011;27753;55.724;37.612;2022-12-26T05:12:34;3.10;;;2.65;;
42094;SDS011;27753;55.724;37.612;2022-12-26T05:15:00;4.90;;;2.47;;
42094;SDS011;27753;55.724;37.612;2022-12-26T05:17:26;3.13;;;2.55;;
42094;SDS011;27753;55.724;37.612;2022-12-26T05:20:10;4.30;;;2.80;;
42094;SDS011;27753;55.724;37.612;2022-12-26T05:22:55;6.38;;;3.08;;
42094;SDS011;27753;55.724;37.612;2022-12-26T05:25:41;5.25;;;3.03;;
42094;SDS011;27753;55.724;37.612;2022-12-26T05:28:27;4.40;;;2.70;;
42094;SDS011;27753;55.724;37.612;2022-12-26T05:31:12;5.28;;;2.95;;
42094;SDS011;27753;55.724;37.612;2022-12-26T05:33:40;9.20;;;3.22;;
42094;SDS011;27753;55.724;37.612;2022-12-26T05:36:28;5.32;;;2.90;;
42094;SDS011;27753;55.724;37.612;2022-12-26T05:38:57;6.38;;;2.88;;
42094;SDS011;27753;55.724;37.612;2022-12-26T05:41:23;5.22;;;2.75;;
42094;SDS011;27753;55.724;37.612;2022-12-26T05:43:49;3.97;;;2.80;;
42094;SDS011;27753;55.724;37.612;2022-12-26T05:46:15;4.70;;;2.88;;
42094;SDS011;27753;55.724;37.612;2022-12-26T05:48:41;4.47;;;3.15;;
42094;SDS011;27753;55.724;37.612;2022-12-26T05:51:07;7.90;;;2.72;;
42094;SDS011;27753;55.724;37.612;2022-12-26T05:53:35;6.38;;;3.38;;
42094;SDS011;27753;55.724;37.612;2022-12-26T05:56:05;5.53;;;3.55;;
42094;SDS011;27753;55.724;37.612;2022-12-26T05:58:34;4.90;;;3.08;;
42094;SDS011;27753;55.724;37.612;2022-12-26T06:01:18;6.22;;;5.28;;
42094;SDS011;27753;55.724;37.612;2022-12-26T06:03:45;5.75;;;3.13;;
42094;SDS011;27753;55.724;37.612;2022-12-26T06:06:12;5.53;;;3.95;;
42094;SDS011;27753;55.724;37.612;2022-12-26T06:08:39;3.50;;;3.00;;
42094;SDS011;27753;55.724;37.612;2022-12-26T06:11:05;5.63;;;3.67;;
42094;SDS011;27753;55.724;37.612;2022-12-26T06:13:33;4.68;;;3.28;;
42094;SDS011;27753;55.724;37.612;2022-12-26T06:16:09;6.57;;;4.15;;
42094;SDS011;27753;55.724;37.612;2022-12-26T06:18:37;5.75;;;4.68;;
42094;SDS011;27753;55.724;37.612;2022-12-26T06:21:08;8.53;;;3.97;;
42094;SDS011;27753;55.724;37.612;2022-12-26T06:23:41;6.35;;;4.70;;
42094;SDS011;27753;55.724;37.612;2022-12-26T06:26:07;3.95;;;3.28;;
42094;SDS011;27753;55.724;37.612;2022-12-26T06:28:34;7.65;;;3.83;;
42094;SDS011;27753;55.724;37.612;2022-12-26T06:31:01;5.10;;;3.55;;
42094;SDS011;27753;55.724;37.612;2022-12-26T06:33:39;7.15;;;4.03;;
42094;SDS011;27753;55.724;37.612;2022-12-26T06:36:05;5.97;;;4.03;;
42094;SDS011;27753;55.724;37.612;2022-12-26T06:38:33;7.13;;;4.03;;
42094;SDS011;27753;55.724;37.612;2022-12-26T06:41:00;6.05;;;3.95;;
42094;SDS011;27753;55.724;37.612;2022-12-26T06:43:29;8.70;;;4.30;;
42094;SDS011;27753;55.724;37.612;2022-12-26T06:45:55;7.10;;;3.38;;
42094;SDS011;27753;55.724;37.612;2022-12-26T06:48:25;7.75;;;3.55;;
42094;SDS011;27753;55.724;37.612;2022-12-26T06:50:52;6.30;;;4.03;;
42094;SDS011;27753;55.724;37.612;2022-12-26T06:53:19;5.82;;;3.38;;
42094;SDS011;27753;55.724;37.612;2022-12-26T06:55:49;8.80;;;4.88;;
42094;SDS011;27753;55.724;37.612;2022-12-26T06:58:16;4.00;;;3.57;;
42094;SDS011;27753;55.724;37.612;2022-12-26T07:00:42;6.25;;;3.95;;
42094;SDS011;27753;55.724;37.612;2022-12-26T07:03:08;5.57;;;3.78;;
42094;SDS011;27753;55.724;37.612;2022-12-26T07:05:35;20.73;;;9.27;;
42094;SDS011;27753;55.724;37.612;2022-12-26T07:08:02;7.90;;;4.82;;
42094;SDS011;27753;55.724;37.612;2022-12-26T07:10:28;6.18;;;3.60;;
42094;SDS011;27753;55.724;37.612;2022-12-26T07:12:54;7.22;;;4.30;;
42094;SDS011;27753;55.724;37.612;2022-12-26T07:15:22;5.38;;;4.45;;
42094;SDS011;27753;55.724;37.612;2022-12-26T07:17:47;5.78;;;4.45;;
42094;SDS011;27753;55.724;37.612;2022-12-26T07:20:13;7.97;;;4.55;;
42094;SDS011;27753;55.724;37.612;2022-12-26T07:22:39;5.47;;;4.10;;
42094;SDS011;27753;55.724;37.612;2022-12-26T07:25:08;4.43;;;4.00;;
42094;SDS011;27753;55.724;37.612;2022-12-26T07:27:34;9.35;;;4.82;;
42094;SDS011;27753;55.724;37.612;2022-12-26T07:30:03;9.02;;;3.72;;
42094;SDS011;27753;55.724;37.612;2022-12-26T07:32:29;6.85;;;4.30;;
42094;SDS011;27753;55.724;37.612;2022-12-26T07:34:58;6.32;;;4.30;;
42094;SDS011;27753;55.724;37.612;2022-12-26T07:37:24;13.02;;;4.40;;
42094;SDS011;27753;55.724;37.612;2022-12-26T07:39:52;8.38;;;4.43;;
42094;SDS011;27753;55.724;37.612;2022-12-26T07:42:18;4.85;;;4.15;;
42094;SDS011;27753;55.724;37.612;2022-12-26T07:44:44;4.37;;;3.97;;
42094;SDS011;27753;55.724;37.612;2022-12-26T07:47:10;4.70;;;3.92;;
42094;SDS011;27753;55.724;37.612;2022-12-26T07:49:36;6.30;;;3.95;;
42094;SDS011;27753;55.724;37.612;2022-12-26T07:52:02;11.27;;;4.00;;
42094;SDS011;27753;55.724;37.612;2022-12-26T07:54:28;7.18;;;4.68;;
42094;SDS011;27753;55.724;37.612;2022-12-26T07:56:56;5.78;;;4.13;;
42094;SDS011;27753;55.724;37.612;2022-12-26T07:59:22;5.85;;;4.28;;
42094;SDS011;27753;55.724;37.612;2022-12-26T08:01:48;13.70;;;4.53;;
42094;SDS011;27753;55.724;37.612;2022-12-26T08:04:13;6.82;;;4.43;;
42094;SDS011;27753;55.724;37.612;2022-12-26T08:06:39;6.85;;;5.15;;
42094;SDS011;27753;55.724;37.612;2022-12-26T08:09:05;7.28;;;4.32;;
42094;SDS011;27753;55.724;37.612;2022-12-26T08:11:32;4.88;;;3.42;;
42094;SDS011;27753;55.724;37.612;2022-12-26T08:13:59;6.35;;;4.70;;
42094;SDS011;27753;55.724;37.612;2022-12-26T08:16:26;5.32;;;4.15;;
42094;SDS011;27753;55.724;37.612;2022-12-26T08:18:51;9.50;;;5.53;;
42094;SDS011;27753;55.724;37.612;2022-12-26T08:21:17;5.10;;;3.88;;
42094;SDS011;27753;55.724;37.612;2022-12-26T08:23:43;6.40;;;4.05;;
42094;SDS011;27753;55.724;37.612;2022-12-26T08:26:12;9.93;;;6.05;;
42094;SDS011;27753;55.724;37.612;2022-12-26T08:28:48;6.63;;;4.70;;
42094;SDS011;27753;55.724;37.612;2022-12-26T08:31:15;3.78;;;3.47;;
42094;SDS011;27753;55.724;37.612;2022-12-26T08:33:42;5.75;;;3.85;;
42094;SDS011;27753;55.724;37.612;2022-12-26T08:36:11;5.45;;;4.45;;
42094;SDS011;27753;55.724;37.612;2022-12-26T08:38:38;8.32;;;5.70;;
42094;SDS011;27753;55.724;37.612;2022-12-26T08:41:04;8.77;;;4.82;;
42094;SDS011;27753;55.724;37.612;2022-12-26T08:43:31;8.75;;;5.10;;
42094;SDS011;27753;55.724;37.612;2022-12-26T08:45:57;6.45;;;4.22;;
42094;SDS011;27753;55.724;37.612;2022-12-26T08:48:34;10.88;;;7.25;;
42094;SDS011;27753;55.724;37.612;2022-12-26T08:51:03;6.60;;;5.68;;
42094;SDS011;27753;55.724;37.612;2022-12-26T08:53:30;14.25;;;5.50;;
42094;SDS011;27753;55.724;37.612;2022-12-26T08:56:00;8.88;;;6.03;;
42094;SDS011;27753;55.724;37.612;2022-12-26T08:58:27;9.43;;;5.60;;
42094;SDS011;27753;55.724;37.612;2022-12-26T09:01:04;6.05;;;4.53;;
42094;SDS011;27753;55.724;37.612;2022-12-26T09:03:34;7.22;;;5.75;;
42094;SDS011;27753;55.724;37.612;2022-12-26T09:06:00;8.50;;;5.95;;
42094;SDS011;27753;55.724;37.612;2022-12-26T09:08:30;9.07;;;5.72;;
42094;SDS011;27753;55.724;37.612;2022-12-26T09:11:05;8.75;;;6.00;;
42094;SDS011;27753;55.724;37.612;2022-12-26T09:13:33;8.98;;;5.65;;
42094;SDS011;27753;55.724;37.612;2022-12-26T09:16:07;6.80;;;5.45;;
42094;SDS011;27753;55.724;37.612;2022-12-26T09:18:44;9.18;;;6.75;;
42094;SDS011;27753;55.724;37.612;2022-12-26T09:21:12;11.85;;;6.38;;
42094;SDS011;27753;55.724;37.612;2022-12-26T09:26:08;10.88;;;7.15;;
42094;SDS011;27753;55.724;37.612;2022-12-26T09:28:36;8.32;;;6.15;;
42094;SDS011;27753;55.724;37.612;2022-12-26T09:31:04;10.75;;;7.20;;
42094;SDS011;27753;55.724;37.612;2022-12-26T09:33:34;9.63;;;6.05;;
42094;SDS011;27753;55.724;37.612;2022-12-26T09:36:04;7.60;;;5.53;;
42094;SDS011;27753;55.724;37.612;2022-12-26T09:38:31;9.93;;;6.53;;
42094;SDS011;27753;55.724;37.612;2022-12-26T09:46:23;14.13;;;7.57;;
42094;SDS011;27753;55.724;37.612;2022-12-26T09:51:33;7.32;;;6.05;;
42094;SDS011;27753;55.724;37.612;2022-12-26T09:54:00;7.95;;;6.45;;
42094;SDS011;27753;55.724;37.612;2022-12-26T09:56:30;8.88;;;6.93;;
42094;SDS011;27753;55.724;37.612;2022-12-26T09:59:04;9.23;;;6.20;;
42094;SDS011;27753;55.724;37.612;2022-12-26T10:01:35;9.07;;;6.97;;
42094;SDS011;27753;55.724;37.612;2022-12-26T10:04:35;7.03;;;6.22;;
42094;SDS011;27753;55.724;37.612;2022-12-26T10:07:06;10.02;;;7.72;;
42094;SDS011;27753;55.724;37.612;2022-12-26T10:15:40;7.80;;;6.30;;
42094;SDS011;27753;55.724;37.612;2022-12-26T10:20:52;9.00;;;6.63;;
42094;SDS011;27753;55.724;37.612;2022-12-26T10:23:27;13.20;;;7.70;;
42094;SDS011;27753;55.724;37.612;2022-12-26T10:26:02;8.52;;;7.05;;
42094;SDS011;27753;55.724;37.612;2022-12-26T10:37:06;9.93;;;6.68;;
42094;SDS011;27753;55.724;37.612;2022-12-26T10:39:51;11.80;;;7.72;;
42094;SDS011;27753;55.724;37.612;2022-12-26T10:42:47;9.85;;;8.10;;
42094;SDS011;27753;55.724;37.612;2022-12-26T10:45:28;9.70;;;6.90;;
42094;SDS011;27753;55.724;37.612;2022-12-26T10:48:02;14.25;;;7.25;;
42094;SDS011;27753;55.724;37.612;2022-12-26T10:53:16;11.10;;;7.47;;
42094;SDS011;27753;55.724;37.612;2022-12-26T10:55:44;10.57;;;7.18;;
42094;SDS011;27753;55.724;37.612;2022-12-26T11:00:44;9.55;;;7.80;;
42094;SDS011;27753;55.724;37.612;2022-12-26T11:03:14;10.25;;;7.45;;
42094;SDS011;27753;55.724;37.612;2022-12-26T11:08:47;12.13;;;9.63;;
42094;SDS011;27753;55.724;37.612;2022-12-26T11:11:32;16.40;;;10.23;;
42094;SDS011;27753;55.724;37.612;2022-12-26T11:14:37;11.77;;;9.10;;
42094;SDS011;27753;55.724;37.612;2022-12-26T11:17:12;14.75;;;9.02;;
42094;SDS011;27753;55.724;37.612;2022-12-26T11:20:07;14.95;;;8.82;;
42094;SDS011;27753;55.724;37.612;2022-12-26T11:25:46;13.27;;;10.02;;
42094;SDS011;27753;55.724;37.612;2022-12-26T11:28:47;11.57;;;8.82;;
42094;SDS011;27753;55.724;37.612;2022-12-26T11:31:06;14.45;;;10.32;;
42094;SDS011;27753;55.724;37.612;2022-12-26T11:33:44;11.05;;;9.82;;
42094;SDS011;27753;55.724;37.612;2022-12-26T11:38:50;18.40;;;10.02;;
42094;SDS011;27753;55.724;37.612;2022-12-26T11:41:40;12.38;;;9.52;;
42094;SDS011;27753;55.724;37.612;2022-12-26T11:46:35;10.73;;;9.35;;
42094;SDS011;27753;55.724;37.612;2022-12-26T11:51:57;13.55;;;9.50;;
42094;SDS011;27753;55.724;37.612;2022-12-26T11:54:26;15.25;;;11.00;;
42094;SDS011;27753;55.724;37.612;2022-12-26T11:56:59;11.05;;;9.55;;
42094;SDS011;27753;55.724;37.612;2022-12-26T11:59:34;11.18;;;8.95;;
42094;SDS011;27753;55.724;37.612;2022-12-26T12:05:03;11.73;;;8.50;;
42094;SDS011;27753;55.724;37.612;2022-12-26T12:23:50;8.95;;;7.50;;
42094;SDS011;27753;55.724;37.612;2022-12-26T12:26:55;11.60;;;7.35;;
42094;SDS011;27753;55.724;37.612;2022-12-26T12:32:21;13.25;;;7.80;;
42094;SDS011;27753;55.724;37.612;2022-12-26T12:42:50;14.05;;;7.50;;
42094;SDS011;27753;55.724;37.612;2022-12-26T12:45:26;10.68;;;8.18;;
42094;SDS011;27753;55.724;37.612;2022-12-26T12:48:28;12.45;;;9.43;;
42094;SDS011;27753;55.724;37.612;2022-12-26T12:56:30;11.30;;;6.43;;
42094;SDS011;27753;55.724;37.612;2022-12-26T13:02:57;8.02;;;5.82;;
42094;SDS011;27753;55.724;37.612;2022-12-26T13:05:16;10.40;;;7.65;;
42094;SDS011;27753;55.724;37.612;2022-12-26T13:07:59;11.23;;;6.75;;
42094;SDS011;27753;55.724;37.612;2022-12-26T13:10:33;7.53;;;6.70;;
42094;SDS011;27753;55.724;37.612;2022-12-26T13:13:21;10.55;;;6.72;;
42094;SDS011;27753;55.724;37.612;2022-12-26T13:15:56;10.65;;;6.65;;
42094;SDS011;27753;55.724;37.612;2022-12-26T13:18:34;10.07;;;6.68;;
42094;SDS011;27753;55.724;37.612;2022-12-26T13:21:05;8.82;;;6.63;;
42094;SDS011;27753;55.724;37.612;2022-12-26T13:26:49;11.02;;;6.47;;
42094;SDS011;27753;55.724;37.612;2022-12-26T13:32:12;7.03;;;6.32;;
42094;SDS011;27753;55.724;37.612;2022-12-26T13:34:51;8.35;;;7.50;;
42094;SDS011;27753;55.724;37.612;2022-12-26T13:40:05;9.27;;;6.80;;
42094;SDS011;27753;55.724;37.612;2022-12-26T13:45:49;12.10;;;6.30;;
42094;SDS011;27753;55.724;37.612;2022-12-26T13:51:02;12.48;;;7.95;;
42094;SDS011;27753;55.724;37.612;2022-12-26T13:53:57;13.45;;;8.77;;
42094;SDS011;27753;55.724;37.612;2022-12-26T13:59:11;15.90;;;9.90;;
42094;SDS011;27753;55.724;37.612;2022-12-26T14:13:26;11.13;;;6.53;;
42094;SDS011;27753;55.724;37.612;2022-12-26T14:23:58;18.52;;;7.28;;
42094;SDS011;27753;55.724;37.612;2022-12-26T14:26:38;12.98;;;7.43;;
42094;SDS011;27753;55.724;37.612;2022-12-26T14:29:16;8.93;;;6.75;;
42094;SDS011;27753;55.724;37.612;2022-12-26T14:40:24;9.57;;;7.57;;
42094;SDS011;27753;55.724;37.612;2022-12-26T14:54:08;10.70;;;6.93;;
42094;SDS011;27753;55.724;37.612;2022-12-26T15:02:00;10.65;;;9.13;;
42094;SDS011;27753;55.724;37.612;2022-12-26T15:05:02;9.45;;;7.78;;
42094;SDS011;27753;55.724;37.612;2022-12-26T15:11:07;12.13;;;9.82;;
42094;SDS011;27753;55.724;37.612;2022-12-26T15:14:17;12.35;;;7.72;;
42094;SDS011;27753;55.724;37.612;2022-12-26T15:26:07;12.07;;;8.48;;
42094;SDS011;27753;55.724;37.612;2022-12-26T15:34:27;12.98;;;7.55;;
42094;SDS011;27753;55.724;37.612;2022-12-26T15:39:41;11.88;;;8.68;;
42094;SDS011;27753;55.724;37.612;2022-12-26T15:45:07;12.10;;;8.85;;
42094;SDS011;27753;55.724;37.612;2022-12-26T15:50:22;8.43;;;5.93;;
42094;SDS011;27753;55.724;37.612;2022-12-26T15:55:59;8.63;;;5.85;;
42094;SDS011;27753;55.724;37.612;2022-12-26T16:01:32;10.18;;;5.63;;
42094;SDS011;27753;55.724;37.612;2022-12-26T16:04:03;8.18;;;6.57;;
42094;SDS011;27753;55.724;37.612;2022-12-26T16:12:16;9.40;;;6.38;;
42094;SDS011;27753;55.724;37.612;2022-12-26T16:17:34;9.50;;;6.13;;
42094;SDS011;27753;55.724;37.612;2022-12-26T16:20:15;8.30;;;5.97;;
42094;SDS011;27753;55.724;37.612;2022-12-26T16:23:05;7.30;;;5.20;;
42094;SDS011;27753;55.724;37.612;2022-12-26T16:25:37;12.07;;;5.50;;
42094;SDS011;27753;55.724;37.612;2022-12-26T16:28:03;11.68;;;5.88;;
42094;SDS011;27753;55.724;37.612;2022-12-26T16:30:31;9.07;;;5.55;;
42094;SDS011;27753;55.724;37.612;2022-12-26T16:33:04;7.68;;;6.13;;
42094;SDS011;27753;55.724;37.612;2022-12-26T16:35:31;10.40;;;6.30;;
42094;SDS011;27753;55.724;37.612;2022-12-26T16:38:03;10.52;;;6.30;;
42094;SDS011;27753;55.724;37.612;2022-12-26T16:40:33;8.85;;;6.72;;
42094;SDS011;27753;55.724;37.612;2022-12-26T16:43:21;11.98;;;6.78;;
42094;SDS011;27753;55.724;37.612;2022-12-26T16:45:57;10.30;;;6.95;;
42094;SDS011;27753;55.724;37.612;2022-12-26T16:48:30;11.48;;;6.40;;
42094;SDS011;27753;55.724;37.612;2022-12-26T16:54:14;11.20;;;7.05;;
42094;SDS011;27753;55.724;37.612;2022-12-26T16:56:58;10.00;;;7.00;;
42094;SDS011;27753;55.724;37.612;2022-12-26T16:59:40;11.55;;;7.03;;
42094;SDS011;27753;55.724;37.612;2022-12-26T17:02:23;10.95;;;7.57;;
42094;SDS011;27753;55.724;37.612;2022-12-26T17:04:53;10.40;;;8.07;;
42094;SDS011;27753;55.724;37.612;2022-12-26T17:07:23;13.02;;;7.63;;
42094;SDS011;27753;55.724;37.612;2022-12-26T17:09:52;11.02;;;8.30;;
42094;SDS011;27753;55.724;37.612;2022-12-26T17:12:30;8.30;;;6.53;;
42094;SDS011;27753;55.724;37.612;2022-12-26T17:15:03;8.77;;;6.63;;
42094;SDS011;27753;55.724;37.612;2022-12-26T17:17:32;10.52;;;6.53;;
42094;SDS011;27753;55.724;37.612;2022-12-26T17:22:58;6.22;;;3.63;;
42094;SDS011;27753;55.724;37.612;2022-12-26T17:30:42;9.70;;;6.18;;
42094;SDS011;27753;55.724;37.612;2022-12-26T17:35:39;13.70;;;6.93;;
42094;SDS011;27753;55.724;37.612;2022-12-26T17:38:16;10.05;;;7.55;;
42094;SDS011;27753;55.724;37.612;2022-12-26T17:40:48;9.48;;;5.57;;
42094;SDS011;27753;55.724;37.612;2022-12-26T17:43:25;6.47;;;5.75;;
42094;SDS011;27753;55.724;37.612;2022-12-26T17:45:55;8.07;;;6.28;;
42094;SDS011;27753;55.724;37.612;2022-12-26T17:48:21;12.00;;;7.25;;
42094;SDS011;27753;55.724;37.612;2022-12-26T17:50:48;12.30;;;7.47;;
42094;SDS011;27753;55.724;37.612;2022-12-26T17:55:46;11.35;;;8.85;;
42094;SDS011;27753;55.724;37.612;2022-12-26T17:58:13;13.15;;;8.85;;
42094;SDS011;27753;55.724;37.612;2022-12-26T18:00:39;12.98;;;9.40;;
42094;SDS011;27753;55.724;37.612;2022-12-26T18:03:06;8.73;;;6.10;;
42094;SDS011;27753;55.724;37.612;2022-12-26T18:05:32;13.75;;;8.07;;
42094;SDS011;27753;55.724;37.612;2022-12-26T18:07:59;12.25;;;8.18;;
42094;SDS011;27753;55.724;37.612;2022-12-26T18:10:26;9.15;;;8.15;;
42094;SDS011;27753;55.724;37.612;2022-12-26T18:12:56;10.63;;;8.38;;
42094;SDS011;27753;55.724;37.612;2022-12-26T18:15:26;8.70;;;6.88;;
42094;SDS011;27753;55.724;37.612;2022-12-26T18:17:54;7.15;;;6.07;;
42094;SDS011;27753;55.724;37.612;2022-12-26T18:20:29;9.25;;;5.47;;
42094;SDS011;27753;55.724;37.612;2022-12-26T18:22:55;9.38;;;7.07;;
42094;SDS011;27753;55.724;37.612;2022-12-26T18:25:22;11.23;;;6.68;;
42094;SDS011;27753;55.724;37.612;2022-12-26T18:27:49;9.63;;;5.35;;
42094;SDS011;27753;55.724;37.612;2022-12-26T18:30:20;7.43;;;4.95;;
42094;SDS011;27753;55.724;37.612;2022-12-26T18:32:49;9.35;;;5.57;;
42094;SDS011;27753;55.724;37.612;2022-12-26T18:35:18;4.68;;;3.97;;
42094;SDS011;27753;55.724;37.612;2022-12-26T18:37:46;8.60;;;4.53;;
42094;SDS011;27753;55.724;37.612;2022-12-26T18:40:23;4.30;;;3.47;;
42094;SDS011;27753;55.724;37.612;2022-12-26T18:42:49;6.40;;;4.05;;
42094;SDS011;27753;55.724;37.612;2022-12-26T18:45:14;6.13;;;3.95;;
42094;SDS011;27753;55.724;37.612;2022-12-26T18:47:40;10.57;;;4.32;;
42094;SDS011;27753;55.724;37.612;2022-12-26T18:50:10;7.05;;;4.70;;
42094;SDS011;27753;55.724;37.612;2022-12-26T18:52:37;7.88;;;4.35;;
42094;SDS011;27753;55.724;37.612;2022-12-26T18:55:02;6.07;;;4.63;;
42094;SDS011;27753;55.724;37.612;2022-12-26T18:57:29;6.78;;;4.10;;
42094;SDS011;27753;55.724;37.612;2022-12-26T18:59:54;8.13;;;5.07;;
42094;SDS011;27753;55.724;37.612;2022-12-26T19:02:20;6.53;;;4.32;;
42094;SDS011;27753;55.724;37.612;2022-12-26T19:04:46;6.68;;;4.88;;
42094;SDS011;27753;55.724;37.612;2022-12-26T19:07:13;11.23;;;5.13;;
42094;SDS011;27753;55.724;37.612;2022-12-26T19:09:43;7.15;;;4.75;;
42094;SDS011;27753;55.724;37.612;2022-12-26T19:12:10;5.28;;;3.75;;
42094;SDS011;27753;55.724;37.612;2022-12-26T19:14:37;7.30;;;3.90;;
42094;SDS011;27753;55.724;37.612;2022-12-26T19:17:06;7.35;;;4.50;;
42094;SDS011;27753;55.724;37.612;2022-12-26T19:19:32;5.45;;;4.20;;
42094;SDS011;27753;55.724;37.612;2022-12-26T19:21:58;5.93;;;4.38;;
42094;SDS011;27753;55.724;37.612;2022-12-26T19:24:24;5.72;;;3.70;;
42094;SDS011;27753;55.724;37.612;2022-12-26T19:26:50;8.48;;;4.25;;
42094;SDS011;27753;55.724;37.612;2022-12-26T19:29:16;5.80;;;4.45;;
42094;SDS011;27753;55.724;37.612;2022-12-26T19:31:48;7.13;;;3.97;;
42094;SDS011;27753;55.724;37.612;2022-12-26T19:34:14;6.35;;;3.90;;
42094;SDS011;27753;55.724;37.612;2022-12-26T19:36:40;5.28;;;4.07;;
42094;SDS011;27753;55.724;37.612;2022-12-26T19:39:06;6.28;;;4.95;;
42094;SDS011;27753;55.724;37.612;2022-12-26T19:41:32;8.88;;;5.32;;
42094;SDS011;27753;55.724;37.612;2022-12-26T19:43:58;5.50;;;3.20;;
42094;SDS011;27753;55.724;37.612;2022-12-26T19:46:25;7.18;;;3.47;;
42094;SDS011;27753;55.724;37.612;2022-12-26T19:48:52;7.53;;;3.47;;
42094;SDS011;27753;55.724;37.612;2022-12-26T19:51:18;5.55;;;3.78;;
42094;SDS011;27753;55.724;37.612;2022-12-26T19:53:45;4.60;;;3.40;;
42094;SDS011;27753;55.724;37.612;2022-12-26T19:56:13;7.82;;;4.00;;
42094;SDS011;27753;55.724;37.612;2022-12-26T19:58:41;12.63;;;5.85;;
42094;SDS011;27753;55.724;37.612;2022-12-26T20:01:08;7.07;;;4.72;;
42094;SDS011;27753;55.724;37.612;2022-12-26T20:03:35;5.57;;;4.00;;
42094;SDS011;27753;55.724;37.612;2022-12-26T20:06:21;12.13;;;4.90;;
42094;SDS011;27753;55.724;37.612;2022-12-26T20:08:48;8.83;;;3.70;;
42094;SDS011;27753;55.724;37.612;2022-12-26T20:11:17;6.83;;;3.93;;
42094;SDS011;27753;55.724;37.612;2022-12-26T20:13:45;5.85;;;3.47;;
42094;SDS011;27753;55.724;37.612;2022-12-26T20:16:14;6.18;;;3.95;;
42094;SDS011;27753;55.724;37.612;2022-12-26T20:18:44;5.10;;;3.30;;
42094;SDS011;27753;55.724;37.612;2022-12-26T20:21:11;6.60;;;4.10;;
42094;SDS011;27753;55.724;37.612;2022-12-26T20:23:37;6.25;;;3.88;;
42094;SDS011;27753;55.724;37.612;2022-12-26T20:26:05;5.32;;;4.13;;
42094;SDS011;27753;55.724;37.612;2022-12-26T20:28:33;6.80;;;4.70;;
42094;SDS011;27753;55.724;37.612;2022-12-26T20:31:00;9.27;;;4.88;;
42094;SDS011;27753;55.724;37.612;2022-12-26T20:33:29;4.88;;;3.50;;
42094;SDS011;27753;55.724;37.612;2022-12-26T20:36:03;4.88;;;4.05;;